Time;durP1;ratioP1;P1;durP2;ratioP2;P2;SDS_P1;SDS_P2;PMS_P1;PMS_P2;Temp;Humidity;BMP_temperature;BMP_pressure;BME280_temperature;BME280_humidity;BME280_pressure;Samples;Min_cycle;Max_cycle;Signal;HPM_P1;HPM_P2
2023/08/15 00:01:06;;;;;;;6.70;4.30;;;22.50;99.20;;;;;;4995714;28;20025;-80
2023/08/15 00:03:32;;;;;;;5.97;3.13;;;22.30;98.80;;;;;;5014933;28;20580;-81
2023/08/15 00:05:58;;;;;;;3.95;3.00;;;22.40;99.40;;;;;;5001970;28;20115;-79
2023/08/15 00:08:23;;;;;;;3.65;2.97;;;22.30;99.20;;;;;;4999262;28;20034;-81
2023/08/15 00:10:49;;;;;;;4.03;3.50;;;22.30;99.90;;;;;;5002439;28;20038;-80
2023/08/15 00:13:15;;;;;;;3.85;3.42;;;22.30;99.60;;;;;;5019597;28;20041;-80
2023/08/15 00:15:40;;;;;;;6.00;4.35;;;22.20;99.40;;;;;;4996945;28;20057;-80
2023/08/15 00:18:06;;;;;;;7.13;4.40;;;22.10;99.90;;;;;;4998915;28;20654;-79
2023/08/15 00:20:32;;;;;;;4.88;3.53;;;22.10;99.90;;;;;;4991820;28;20045;-80
2023/08/15 00:22:57;;;;;;;5.72;3.92;;;22.00;99.90;;;;;;4986635;28;20032;-80
2023/08/15 00:25:23;;;;;;;5.22;3.42;;;21.90;99.90;;;;;;5004121;28;20041;-81
2023/08/15 00:27:48;;;;;;;6.03;5.38;;;21.90;99.90;;;;;;4993033;28;20060;-80
2023/08/15 00:30:14;;;;;;;5.90;4.60;;;21.90;99.90;;;;;;5016504;28;20420;-80
2023/08/15 00:32:39;;;;;;;5.75;4.50;;;21.90;99.90;;;;;;4993992;28;20474;-80
2023/08/15 00:35:05;;;;;;;7.22;4.30;;;21.70;99.90;;;;;;5016403;28;20038;-80
2023/08/15 00:37:34;;;;;;;8.57;4.78;;;21.70;99.90;;;;;;5005426;28;21016;-81
2023/08/15 00:40:00;;;;;;;5.05;3.97;;;21.80;99.90;;;;;;5004007;28;20034;-79
2023/08/15 00:42:25;;;;;;;5.45;4.85;;;21.60;99.90;;;;;;5021280;28;20044;-80
2023/08/15 00:44:51;;;;;;;5.75;3.50;;;21.60;99.90;;;;;;5019641;28;20393;-80
2023/08/15 00:47:16;;;;;;;4.25;3.33;;;21.50;99.90;;;;;;5005818;28;20048;-81
2023/08/15 00:49:42;;;;;;;5.10;4.07;;;21.50;99.90;;;;;;4992896;28;20025;-80
2023/08/15 00:52:08;;;;;;;5.50;4.32;;;21.50;99.90;;;;;;4999251;28;20135;-79
2023/08/15 00:54:33;;;;;;;7.22;4.47;;;21.50;99.90;;;;;;5005979;28;20489;-80
2023/08/15 00:56:59;;;;;;;5.18;4.70;;;21.40;99.90;;;;;;5001643;28;20065;-80
2023/08/15 00:59:25;;;;;;;4.35;3.97;;;21.40;99.90;;;;;;5004225;28;20084;-80
2023/08/15 01:01:50;;;;;;;5.78;4.20;;;21.40;99.90;;;;;;5004295;28;20033;-80
2023/08/15 01:04:16;;;;;;;7.80;5.88;;;21.40;99.90;;;;;;5003181;28;20037;-80
2023/08/15 01:06:41;;;;;;;6.22;4.65;;;21.30;99.90;;;;;;5004199;28;20032;-81
2023/08/15 01:09:08;;;;;;;10.20;5.03;;;21.20;99.90;;;;;;5003823;28;20037;-80
2023/08/15 01:11:39;;;;;;;6.45;4.95;;;21.20;99.90;;;;;;5001217;28;20033;-80
2023/08/15 01:14:08;;;;;;;4.78;4.30;;;21.10;99.90;;;;;;4991901;28;20095;-80
2023/08/15 01:16:37;;;;;;;5.43;4.43;;;21.20;99.90;;;;;;5017999;28;20490;-81
2023/08/15 01:19:10;;;;;;;7.57;5.22;;;21.20;99.90;;;;;;5003299;28;20041;-79
2023/08/15 01:21:39;;;;;;;9.15;5.43;;;21.10;99.90;;;;;;5009719;28;20042;-80
2023/08/15 01:24:05;;;;;;;5.88;5.15;;;21.10;99.90;;;;;;4989848;28;20065;-82
2023/08/15 01:26:30;;;;;;;6.18;4.35;;;21.00;99.90;;;;;;4989857;28;20079;-81
2023/08/15 01:28:56;;;;;;;5.10;3.88;;;21.10;99.90;;;;;;5000075;28;20033;-80
2023/08/15 01:31:25;;;;;;;4.22;3.13;;;21.00;99.90;;;;;;5014989;28;20370;-80
2023/08/15 01:34:11;;;;;;;5.40;3.78;;;21.10;99.90;;;;;;5002639;28;20508;-80
2023/08/15 01:36:43;;;;;;;4.07;3.55;;;21.20;99.90;;;;;;5015544;28;20556;-80
2023/08/15 01:39:09;;;;;;;6.50;4.65;;;21.20;99.90;;;;;;5003647;28;20113;-81
2023/08/15 01:41:38;;;;;;;8.65;5.22;;;21.10;99.90;;;;;;5017001;28;20155;-80
2023/08/15 01:44:06;;;;;;;7.30;5.20;;;21.00;99.90;;;;;;5003746;28;20034;-80
2023/08/15 01:46:32;;;;;;;8.93;6.25;;;20.90;99.90;;;;;;4990603;28;20440;-80
2023/08/15 01:48:59;;;;;;;7.47;5.85;;;20.80;99.90;;;;;;5015401;28;20022;-81
2023/08/15 01:51:25;;;;;;;8.18;5.85;;;20.80;99.90;;;;;;5021371;28;20036;-80
2023/08/15 01:53:50;;;;;;;7.20;5.32;;;20.80;99.90;;;;;;4986178;28;20393;-80
2023/08/15 01:56:16;;;;;;;8.07;4.68;;;20.80;99.90;;;;;;5019208;28;20041;-80
2023/08/15 01:58:41;;;;;;;6.05;4.90;;;20.80;99.90;;;;;;4986407;28;20033;-80
2023/08/15 02:01:07;;;;;;;6.95;5.30;;;20.80;99.90;;;;;;5004069;28;20108;-80
2023/08/15 02:03:33;;;;;;;6.50;5.65;;;20.80;99.90;;;;;;4990515;28;20026;-79
2023/08/15 02:05:58;;;;;;;8.45;5.55;;;20.80;99.90;;;;;;5019466;28;20053;-80
2023/08/15 02:08:24;;;;;;;5.53;4.68;;;20.80;99.90;;;;;;4986003;28;20053;-80
2023/08/15 02:10:50;;;;;;;5.88;4.88;;;20.90;99.90;;;;;;4998031;28;20370;-80
2023/08/15 02:13:16;;;;;;;6.93;5.35;;;20.90;99.90;;;;;;5001094;28;20041;-80
2023/08/15 02:15:42;;;;;;;4.57;3.97;;;20.80;99.90;;;;;;4983678;28;20591;-78
2023/08/15 02:18:07;;;;;;;4.07;3.45;;;20.80;99.90;;;;;;4987633;28;20058;-80
2023/08/15 02:20:33;;;;;;;4.43;3.38;;;20.90;99.90;;;;;;4990214;28;20038;-80
2023/08/15 02:22:59;;;;;;;5.57;4.10;;;21.10;99.90;;;;;;5015066;28;20038;-81
2023/08/15 02:25:24;;;;;;;9.18;4.95;;;21.10;99.90;;;;;;4986811;28;20507;-80
2023/08/15 02:27:50;;;;;;;5.60;4.28;;;21.10;99.90;;;;;;4999757;28;20029;-80
2023/08/15 02:30:16;;;;;;;4.50;4.07;;;21.10;99.90;;;;;;5015103;28;20064;-80
2023/08/15 02:32:41;;;;;;;6.32;3.97;;;21.10;99.90;;;;;;4989969;28;20039;-81
2023/08/15 02:35:07;;;;;;;3.83;3.10;;;21.10;99.90;;;;;;4990132;28;20044;-80
2023/08/15 02:37:34;;;;;;;7.05;4.07;;;21.20;99.90;;;;;;5013632;28;20037;-80
2023/08/15 02:39:59;;;;;;;5.00;4.45;;;21.10;99.90;;;;;;5019572;28;20042;-80
2023/08/15 02:42:25;;;;;;;5.55;3.50;;;21.10;99.90;;;;;;4985904;28;20033;-80
2023/08/15 02:44:51;;;;;;;5.18;3.85;;;21.20;99.90;;;;;;5001583;28;20034;-80
2023/08/15 02:47:16;;;;;;;3.50;3.20;;;21.30;99.90;;;;;;5013816;28;20033;-80
2023/08/15 02:49:42;;;;;;;5.57;3.50;;;21.50;99.90;;;;;;4989487;28;20104;-80
2023/08/15 02:52:07;;;;;;;3.92;3.22;;;21.50;99.90;;;;;;4989414;28;20057;-80
2023/08/15 02:54:33;;;;;;;5.45;3.53;;;21.70;99.90;;;;;;5018467;28;20421;-80
2023/08/15 02:56:58;;;;;;;5.78;3.53;;;21.60;99.90;;;;;;5000399;28;20054;-81
2023/08/15 02:59:24;;;;;;;4.57;3.28;;;21.70;99.90;;;;;;5013811;28;20040;-80
2023/08/15 03:01:50;;;;;;;4.15;3.22;;;21.70;99.90;;;;;;5013423;28;20029;-81
2023/08/15 03:04:15;;;;;;;4.60;3.30;;;21.70;99.90;;;;;;4991369;28;20040;-80
2023/08/15 03:06:42;;;;;;;6.32;3.50;;;21.70;99.90;;;;;;4999031;28;20144;-81
2023/08/15 03:09:08;;;;;;;5.43;3.60;;;21.70;99.90;;;;;;5001708;28;21631;-80
2023/08/15 03:11:33;;;;;;;8.07;3.22;;;21.80;99.90;;;;;;4988689;28;20030;-80
2023/08/15 03:13:59;;;;;;;4.07;3.38;;;21.80;99.90;;;;;;4999525;28;20033;-80
2023/08/15 03:16:26;;;;;;;4.80;3.70;;;21.70;99.90;;;;;;5012729;28;20554;-80
2023/08/15 03:18:51;;;;;;;5.90;3.35;;;21.80;99.90;;;;;;5001085;28;20034;-81
2023/08/15 03:21:17;;;;;;;4.93;3.47;;;21.80;99.90;;;;;;5016026;28;20033;-81
2023/08/15 03:23:43;;;;;;;6.82;4.70;;;21.70;99.90;;;;;;5005032;28;20034;-80
2023/08/15 03:26:08;;;;;;;6.22;3.17;;;21.80;99.90;;;;;;5022738;28;20033;-80
2023/08/15 03:28:34;;;;;;;5.03;3.83;;;21.80;99.90;;;;;;4987608;28;20059;-80
2023/08/15 03:31:06;;;;;;;5.43;3.85;;;21.80;99.90;;;;;;4978447;28;20030;-80
2023/08/15 03:33:32;;;;;;;7.78;3.50;;;21.80;99.90;;;;;;5012986;28;20539;-80
2023/08/15 03:35:58;;;;;;;4.63;3.22;;;21.80;99.90;;;;;;4992795;28;20394;-79
2023/08/15 03:38:23;;;;;;;4.55;3.47;;;21.80;99.90;;;;;;4995598;28;20018;-80
2023/08/15 03:40:58;;;;;;;6.35;4.30;;;21.80;99.90;;;;;;4995708;28;20512;-81
2023/08/15 03:43:24;;;;;;;8.52;4.90;;;21.70;99.90;;;;;;4984557;28;20041;-82
2023/08/15 03:45:50;;;;;;;7.43;4.78;;;21.60;99.90;;;;;;4988386;28;20025;-80
2023/08/15 03:48:15;;;;;;;9.05;3.95;;;21.60;99.90;;;;;;4986682;28;20715;-80
2023/08/15 03:50:41;;;;;;;8.02;4.07;;;21.60;99.90;;;;;;4988579;28;20030;-79
2023/08/15 03:53:06;;;;;;;9.18;4.47;;;21.60;99.90;;;;;;5015730;28;20080;-80
2023/08/15 03:55:32;;;;;;;7.05;4.38;;;21.50;99.90;;;;;;5017697;28;20090;-79
2023/08/15 03:57:57;;;;;;;5.30;4.35;;;21.40;99.90;;;;;;4991204;28;20029;-80
2023/08/15 04:00:23;;;;;;;6.13;4.35;;;21.30;99.90;;;;;;5022131;28;20040;-80
2023/08/15 04:02:49;;;;;;;6.32;4.43;;;21.20;99.90;;;;;;5019732;28;20068;-80
2023/08/15 04:05:15;;;;;;;8.48;4.68;;;21.30;99.90;;;;;;4999986;28;20037;-80
2023/08/15 04:07:41;;;;;;;6.55;5.85;;;21.20;99.90;;;;;;5020621;28;20033;-80
2023/08/15 04:10:07;;;;;;;7.20;4.32;;;21.10;99.90;;;;;;5016810;28;20041;-81
2023/08/15 04:12:33;;;;;;;6.47;4.65;;;21.20;99.90;;;;;;5000063;28;20044;-78
2023/08/15 04:14:59;;;;;;;5.07;3.88;;;21.20;99.90;;;;;;5020720;28;20391;-78
2023/08/15 04:17:26;;;;;;;4.47;3.33;;;21.20;99.90;;;;;;5021426;28;20033;-81
2023/08/15 04:19:51;;;;;;;7.30;4.70;;;21.30;99.90;;;;;;4991041;28;20044;-79
2023/08/15 04:22:17;;;;;;;5.97;3.63;;;21.30;99.90;;;;;;5009266;28;20033;-80
2023/08/15 04:24:42;;;;;;;8.43;4.75;;;21.30;99.90;;;;;;5022059;28;21619;-79
2023/08/15 04:27:08;;;;;;;7.07;4.78;;;21.20;99.90;;;;;;5019260;28;20038;-79
2023/08/15 04:29:33;;;;;;;7.93;4.75;;;21.10;99.90;;;;;;5019998;28;20490;-79
2023/08/15 04:31:59;;;;;;;5.72;4.20;;;21.20;99.90;;;;;;5021102;28;20099;-79
2023/08/15 04:34:25;;;;;;;7.35;4.68;;;21.10;99.90;;;;;;4992475;28;20168;-80
2023/08/15 04:36:50;;;;;;;6.43;4.35;;;21.00;99.90;;;;;;4992692;28;20389;-80
2023/08/15 04:39:17;;;;;;;8.70;4.82;;;21.00;99.90;;;;;;5020173;28;20037;-80
2023/08/15 04:41:43;;;;;;;6.75;4.00;;;20.90;99.90;;;;;;4990133;28;20036;-79
2023/08/15 04:44:10;;;;;;;7.72;4.63;;;21.00;99.90;;;;;;4983827;28;20038;-80
2023/08/15 04:46:36;;;;;;;6.30;4.88;;;21.00;99.90;;;;;;5019710;28;20025;-79
2023/08/15 04:49:03;;;;;;;7.50;4.13;;;20.90;99.90;;;;;;5017229;28;20109;-80
2023/08/15 04:51:29;;;;;;;7.55;3.58;;;20.90;99.90;;;;;;5004455;28;20486;-80
2023/08/15 04:53:54;;;;;;;5.88;3.80;;;20.90;99.90;;;;;;4989644;28;20040;-80
2023/08/15 04:56:21;;;;;;;4.70;3.50;;;20.80;99.90;;;;;;4985711;28;20049;-80
2023/08/15 04:58:47;;;;;;;6.63;4.13;;;20.80;99.90;;;;;;5021049;28;20030;-80
2023/08/15 05:01:12;;;;;;;3.80;3.40;;;20.80;99.90;;;;;;5007615;28;20099;-79
2023/08/15 05:03:38;;;;;;;5.68;3.60;;;20.80;99.90;;;;;;5018093;28;20050;-79
2023/08/15 05:06:03;;;;;;;7.97;4.30;;;20.80;99.90;;;;;;5000545;28;20030;-80
2023/08/15 05:08:29;;;;;;;5.53;3.95;;;20.90;99.90;;;;;;5004098;28;20025;-80
2023/08/15 05:10:55;;;;;;;8.80;4.57;;;20.80;99.90;;;;;;4998528;28;20022;-79
2023/08/15 05:13:20;;;;;;;6.15;3.78;;;20.70;99.90;;;;;;5004528;28;20022;-79
2023/08/15 05:15:46;;;;;;;6.25;3.80;;;20.70;99.90;;;;;;5004649;28;20033;-79
2023/08/15 05:18:14;;;;;;;8.27;4.20;;;20.80;99.90;;;;;;4983083;28;20045;-78
2023/08/15 05:20:39;;;;;;;4.63;3.97;;;20.80;99.90;;;;;;5015518;28;20025;-79
2023/08/15 05:23:05;;;;;;;6.45;4.60;;;20.80;99.90;;;;;;4986686;28;20496;-79
2023/08/15 05:25:30;;;;;;;8.57;3.92;;;20.80;99.90;;;;;;5002482;28;20030;-79
2023/08/15 05:27:56;;;;;;;8.55;4.50;;;20.90;99.90;;;;;;5003103;28;20561;-79
2023/08/15 05:30:22;;;;;;;6.72;3.80;;;21.00;99.90;;;;;;4994311;28;20025;-79
2023/08/15 05:32:49;;;;;;;8.32;4.10;;;21.00;99.90;;;;;;5026433;28;20087;-79
2023/08/15 05:35:14;;;;;;;4.38;3.80;;;21.00;99.90;;;;;;4991437;28;20497;-80
2023/08/15 05:37:40;;;;;;;5.07;3.70;;;21.10;99.90;;;;;;5019136;28;20128;-78
2023/08/15 05:40:06;;;;;;;4.97;3.67;;;21.00;99.90;;;;;;5000162;28;20049;-79
2023/08/15 05:42:32;;;;;;;6.82;4.47;;;21.10;99.90;;;;;;5017854;28;20401;-80
2023/08/15 05:44:57;;;;;;;6.50;3.70;;;21.10;99.90;;;;;;5000987;28;20044;-79
2023/08/15 05:47:23;;;;;;;5.05;3.58;;;21.20;99.90;;;;;;5007262;28;20508;-78
2023/08/15 05:49:48;;;;;;;7.20;4.50;;;21.10;99.90;;;;;;5002405;28;20547;-78
2023/08/15 05:52:15;;;;;;;6.95;3.92;;;21.10;99.90;;;;;;5019473;28;20038;-79
2023/08/15 05:54:40;;;;;;;6.75;3.40;;;21.10;99.90;;;;;;5004942;28;20044;-79
2023/08/15 05:57:06;;;;;;;7.22;3.67;;;21.20;99.90;;;;;;5001120;28;20081;-79
2023/08/15 05:59:31;;;;;;;6.88;3.88;;;21.20;99.90;;;;;;5018713;28;20033;-78
2023/08/15 06:01:58;;;;;;;5.97;3.58;;;21.20;99.90;;;;;;5018635;28;20037;-78
2023/08/15 06:04:24;;;;;;;7.70;4.18;;;21.20;99.90;;;;;;5015253;28;20033;-77
2023/08/15 06:06:49;;;;;;;5.07;3.92;;;21.20;99.90;;;;;;5017052;28;20432;-78
2023/08/15 06:09:15;;;;;;;7.65;4.50;;;21.20;99.90;;;;;;5018175;28;20374;-79
2023/08/15 06:11:40;;;;;;;6.20;4.78;;;21.20;99.90;;;;;;4998748;28;20038;-79
2023/08/15 06:14:06;;;;;;;6.15;4.47;;;21.30;99.90;;;;;;5003311;28;20029;-78
2023/08/15 06:16:33;;;;;;;6.38;3.80;;;21.20;99.90;;;;;;5013703;28;20033;-78
2023/08/15 06:18:59;;;;;;;8.63;5.32;;;21.30;99.90;;;;;;5012533;28;20034;-79
2023/08/15 06:21:25;;;;;;;5.80;4.63;;;21.40;99.90;;;;;;4996351;28;20032;-78
2023/08/15 06:23:50;;;;;;;10.48;5.10;;;21.40;99.90;;;;;;4983115;28;20061;-78
2023/08/15 06:26:16;;;;;;;11.68;5.53;;;21.40;99.90;;;;;;5013318;28;20038;-79
2023/08/15 06:28:41;;;;;;;13.13;5.57;;;21.50;99.90;;;;;;4988934;28;20080;-78
2023/08/15 06:31:07;;;;;;;12.15;6.22;;;21.50;99.90;;;;;;5000382;28;20030;-78
2023/08/15 06:33:32;;;;;;;11.48;4.78;;;21.50;99.90;;;;;;4999994;28;20083;-79
2023/08/15 06:35:58;;;;;;;7.53;4.47;;;21.60;99.90;;;;;;5017450;28;20028;-78
2023/08/15 06:38:25;;;;;;;6.90;4.85;;;21.60;99.90;;;;;;5013960;28;20044;-78
2023/08/15 06:40:50;;;;;;;6.53;4.32;;;21.60;99.90;;;;;;5012886;28;20062;-79
2023/08/15 06:43:16;;;;;;;7.15;4.07;;;21.80;99.90;;;;;;5017071;28;20038;-78
2023/08/15 06:45:42;;;;;;;7.95;4.70;;;21.80;99.90;;;;;;5015217;28;20080;-79
2023/08/15 06:48:07;;;;;;;6.90;4.22;;;21.70;99.90;;;;;;5003188;28;20030;-79
2023/08/15 06:50:33;;;;;;;9.98;4.57;;;21.80;99.90;;;;;;5000604;28;20535;-79
2023/08/15 06:52:58;;;;;;;7.78;4.57;;;21.90;99.90;;;;;;5012876;28;20037;-79
2023/08/15 06:55:25;;;;;;;12.10;5.05;;;21.90;99.90;;;;;;4985811;28;20434;-79
2023/08/15 06:57:50;;;;;;;10.85;5.78;;;22.00;99.90;;;;;;5014045;28;20040;-79
2023/08/15 07:00:19;;;;;;;5.78;4.30;;;22.10;99.90;;;;;;5013466;28;20034;-79
2023/08/15 07:02:45;;;;;;;7.32;3.97;;;22.10;99.90;;;;;;4999769;28;20038;-79
2023/08/15 07:05:10;;;;;;;5.38;4.57;;;22.20;99.90;;;;;;5000804;28;20038;-79
2023/08/15 07:07:37;;;;;;;5.78;4.13;;;22.20;99.90;;;;;;5015980;28;20052;-79
2023/08/15 07:10:06;;;;;;;10.80;4.47;;;22.20;99.90;;;;;;5018354;28;20038;-79
2023/08/15 07:12:32;;;;;;;7.22;4.20;;;22.30;99.90;;;;;;5014597;28;20129;-79
2023/08/15 07:14:58;;;;;;;9.23;4.95;;;22.30;99.90;;;;;;5011645;28;20064;-79
2023/08/15 07:17:23;;;;;;;7.38;3.75;;;22.40;99.90;;;;;;5018989;28;20057;-79
2023/08/15 07:19:49;;;;;;;5.70;4.70;;;22.50;99.90;;;;;;5018603;28;20037;-78
2023/08/15 07:22:14;;;;;;;9.25;5.22;;;22.60;99.90;;;;;;5001594;28;20030;-80
2023/08/15 07:24:40;;;;;;;6.25;4.55;;;22.60;99.90;;;;;;5016425;28;20441;-78
2023/08/15 07:27:05;;;;;;;8.32;4.60;;;22.70;99.90;;;;;;4986263;28;20034;-78
2023/08/15 07:29:31;;;;;;;7.07;4.28;;;22.70;99.90;;;;;;5010779;28;20038;-79
2023/08/15 07:31:56;;;;;;;7.50;4.32;;;22.80;99.90;;;;;;5014342;28;20087;-79
2023/08/15 07:34:22;;;;;;;7.90;5.25;;;22.90;99.90;;;;;;4999808;28;20673;-78
2023/08/15 07:36:48;;;;;;;8.60;4.43;;;22.90;99.90;;;;;;4992643;28;20365;-79
2023/08/15 07:39:14;;;;;;;10.98;5.60;;;23.00;99.90;;;;;;4988182;28;20034;-80
2023/08/15 07:41:41;;;;;;;6.55;4.68;;;23.10;99.90;;;;;;4989056;28;20109;-80
2023/08/15 07:44:07;;;;;;;6.80;4.63;;;23.20;99.90;;;;;;5018263;28;20513;-78
2023/08/15 07:46:33;;;;;;;7.53;5.18;;;23.40;99.90;;;;;;5017833;28;20148;-79
2023/08/15 07:48:58;;;;;;;6.50;5.28;;;23.50;99.90;;;;;;5004255;28;20149;-79
2023/08/15 07:51:24;;;;;;;12.00;5.03;;;23.50;99.90;;;;;;5014088;28;20030;-80
2023/08/15 07:53:49;;;;;;;7.32;4.28;;;23.60;99.90;;;;;;4995058;28;20061;-80
2023/08/15 07:56:15;;;;;;;6.93;3.78;;;23.60;99.90;;;;;;4985344;28;20037;-79
2023/08/15 07:58:40;;;;;;;5.05;3.67;;;23.70;99.90;;;;;;5016254;28;20030;-80
2023/08/15 08:01:06;;;;;;;5.30;3.80;;;23.70;99.90;;;;;;4999793;28;20117;-79
2023/08/15 08:03:32;;;;;;;6.50;4.38;;;23.70;99.90;;;;;;4982941;28;20116;-79
2023/08/15 08:05:58;;;;;;;9.00;4.18;;;23.80;99.90;;;;;;4997679;28;20097;-79
2023/08/15 08:08:23;;;;;;;7.03;4.00;;;23.90;99.90;;;;;;5001057;28;20061;-81
2023/08/15 08:10:49;;;;;;;6.78;4.32;;;24.00;99.90;;;;;;4986774;28;20664;-79
2023/08/15 08:13:17;;;;;;;7.63;3.65;;;24.10;99.90;;;;;;4991923;28;20075;-79
2023/08/15 08:15:43;;;;;;;7.85;4.00;;;24.20;99.90;;;;;;4986951;28;20064;-79
2023/08/15 08:18:08;;;;;;;6.57;3.95;;;24.30;99.90;;;;;;5002138;28;20041;-79
2023/08/15 08:20:34;;;;;;;7.55;4.03;;;24.50;99.90;;;;;;4988243;28;20033;-79
2023/08/15 08:22:59;;;;;;;4.95;3.78;;;24.50;99.90;;;;;;4988236;28;20033;-79
2023/08/15 08:25:26;;;;;;;12.45;4.50;;;24.60;99.90;;;;;;4999689;28;20045;-79
2023/08/15 08:27:52;;;;;;;5.15;3.17;;;24.90;99.90;;;;;;4984580;28;20738;-79
2023/08/15 08:30:19;;;;;;;6.15;3.45;;;24.90;99.90;;;;;;5014152;28;20030;-78
2023/08/15 08:32:44;;;;;;;11.35;4.30;;;24.50;99.90;;;;;;5016267;28;20828;-78
2023/08/15 08:35:10;;;;;;;4.60;3.08;;;24.60;99.90;;;;;;5014428;28;20087;-78
2023/08/15 08:37:37;;;;;;;5.18;3.22;;;24.80;99.90;;;;;;5016020;28;20452;-78
2023/08/15 08:40:04;;;;;;;5.28;2.97;;;25.30;99.90;;;;;;5001344;28;20448;-78
2023/08/15 08:42:30;;;;;;;8.15;3.30;;;25.60;99.90;;;;;;4994635;28;20034;-79
2023/08/15 08:44:55;;;;;;;7.13;3.55;;;25.80;99.90;;;;;;4985981;28;20044;-78
2023/08/15 08:47:21;;;;;;;6.03;2.80;;;25.90;99.90;;;;;;5003233;28;20033;-78
2023/08/15 08:49:47;;;;;;;5.95;3.28;;;26.00;99.90;;;;;;5004568;28;20048;-78
2023/08/15 08:52:13;;;;;;;5.47;3.10;;;26.00;99.90;;;;;;5018540;28;20045;-78
2023/08/15 08:54:39;;;;;;;5.03;2.50;;;26.00;99.90;;;;;;5001975;28;20525;-78
2023/08/15 08:57:06;;;;;;;6.35;2.90;;;26.20;99.90;;;;;;5016823;28;20066;-79
2023/08/15 08:59:32;;;;;;;5.68;2.65;;;26.30;99.90;;;;;;4985755;28;20034;-79
2023/08/15 09:01:58;;;;;;;3.47;2.33;;;26.40;99.90;;;;;;4988167;28;20052;-78
2023/08/15 09:04:23;;;;;;;5.72;3.00;;;26.40;99.90;;;;;;4990898;28;20430;-78
2023/08/15 09:06:49;;;;;;;6.82;2.40;;;26.50;99.90;;;;;;5018095;28;20043;-78
2023/08/15 09:09:14;;;;;;;4.22;2.03;;;26.60;99.90;;;;;;5019992;28;20038;-78
2023/08/15 09:11:40;;;;;;;4.07;2.35;;;26.70;99.90;;;;;;4989349;28;20038;-78
2023/08/15 09:14:06;;;;;;;2.83;1.90;;;26.80;99.90;;;;;;4989604;28;20025;-78
2023/08/15 09:16:32;;;;;;;4.40;1.70;;;26.80;99.90;;;;;;4999349;28;20030;-78
2023/08/15 09:19:04;;;;;;;3.88;1.20;;;26.90;99.90;;;;;;4999433;28;20552;-79
2023/08/15 09:21:33;;;;;;;2.85;1.52;;;27.20;99.90;;;;;;5001495;28;20545;-78
2023/08/15 09:23:59;;;;;;;1.92;1.30;;;27.40;99.90;;;;;;5000636;28;20045;-79
2023/08/15 09:26:25;;;;;;;4.63;1.55;;;27.50;99.90;;;;;;4983865;28;20022;-78
2023/08/15 09:28:50;;;;;;;6.20;1.80;;;27.60;99.90;;;;;;5010641;28;20879;-80
2023/08/15 09:31:16;;;;;;;3.00;1.40;;;27.80;99.90;;;;;;4989776;28;20033;-78
2023/08/15 09:33:42;;;;;;;3.03;1.00;;;27.70;99.90;;;;;;4974807;28;20470;-80
2023/08/15 09:36:08;;;;;;;4.78;1.50;;;27.90;99.90;;;;;;5000068;28;20026;-78
2023/08/15 09:38:36;;;;;;;5.65;1.00;;;28.20;99.90;;;;;;5000365;28;20040;-80
2023/08/15 09:41:01;;;;;;;4.78;1.52;;;28.20;99.90;;;;;;5019266;28;20151;-80
2023/08/15 09:43:27;;;;;;;5.07;1.30;;;28.20;99.90;;;;;;4997740;28;20534;-80
2023/08/15 09:45:53;;;;;;;3.53;1.80;;;28.30;99.90;;;;;;5015823;28;20223;-79
2023/08/15 09:48:19;;;;;;;1.30;0.93;;;28.50;99.90;;;;;;4983736;28;20061;-80
2023/08/15 09:50:45;;;;;;;2.97;1.10;;;29.10;99.90;;;;;;5005226;28;20084;-79
2023/08/15 09:53:10;;;;;;;2.58;1.20;;;29.10;97.90;;;;;;4986058;28;20120;-79
2023/08/15 09:55:36;;;;;;;3.90;1.75;;;29.10;98.20;;;;;;5014173;28;20032;-80
2023/08/15 09:58:04;;;;;;;4.45;1.40;;;29.20;98.30;;;;;;4988165;28;20049;-79
2023/08/15 10:00:29;;;;;;;2.10;1.23;;;29.40;97.90;;;;;;5015472;28;20034;-79
2023/08/15 10:03:10;;;;;;;1.42;1.00;;;29.40;99.90;;;;;;4989146;28;20494;-79
2023/08/15 10:05:36;;;;;;;2.03;1.10;;;29.20;99.90;;;;;;5012696;28;20045;-81
2023/08/15 10:08:02;;;;;;;4.47;1.00;;;29.40;96.90;;;;;;4985640;28;20030;-80
2023/08/15 10:10:30;;;;;;;3.13;1.10;;;29.70;98.00;;;;;;4995859;28;20121;-80
2023/08/15 10:12:56;;;;;;;6.15;1.88;;;29.80;96.60;;;;;;5014939;28;20095;-81
2023/08/15 10:15:22;;;;;;;2.03;1.00;;;30.10;95.30;;;;;;4988884;28;20429;-81
2023/08/15 10:17:52;;;;;;;2.83;1.17;;;29.90;96.40;;;;;;5017105;28;20029;-81
2023/08/15 10:20:20;;;;;;;1.85;0.98;;;30.00;96.30;;;;;;5000368;28;20037;-82
2023/08/15 10:22:48;;;;;;;1.88;0.95;;;30.20;94.50;;;;;;4984726;28;20060;-81
2023/08/15 10:25:23;;;;;;;4.13;1.35;;;30.10;96.10;;;;;;4983315;28;20049;-81
2023/08/15 10:27:52;;;;;;;3.05;1.33;;;30.00;97.50;;;;;;5013751;28;20047;-82
2023/08/15 10:30:52;;;;;;;2.38;1.00;;;30.00;97.40;;;;;;5003345;28;20038;-80
2023/08/15 10:33:22;;;;;;;1.05;0.80;;;30.30;94.20;;;;;;4968013;28;20037;-81
2023/08/15 10:35:50;;;;;;;1.70;1.15;;;30.30;95.00;;;;;;5015064;28;20527;-82
2023/08/15 10:38:39;;;;;;;3.88;1.25;;;30.70;94.00;;;;;;5008468;28;20025;-83
2023/08/15 10:41:11;;;;;;;1.77;1.00;;;31.10;93.70;;;;;;4991267;28;20619;-81
2023/08/15 10:43:36;;;;;;;1.23;0.90;;;30.70;95.00;;;;;;5001224;28;20475;-81
2023/08/15 10:46:04;;;;;;;1.83;0.82;;;31.00;94.80;;;;;;5016604;28;20034;-82
2023/08/15 10:48:43;;;;;;;2.28;1.02;;;31.20;94.20;;;;;;4997144;28;20120;-82
2023/08/15 10:51:28;;;;;;;2.55;1.20;;;31.40;92.60;;;;;;5014703;28;20044;-83
2023/08/15 10:53:58;;;;;;;1.63;1.25;;;31.90;91.70;;;;;;4988606;28;20029;-83
2023/08/15 10:56:25;;;;;;;4.03;1.45;;;31.90;91.60;;;;;;5003003;28;20048;-82
2023/08/15 10:58:51;;;;;;;3.40;1.80;;;31.80;91.60;;;;;;5013004;28;20030;-83
2023/08/15 11:01:18;;;;;;;1.65;1.25;;;31.50;93.80;;;;;;5014097;28;20100;-83
2023/08/15 11:03:44;;;;;;;1.35;1.20;;;31.60;93.30;;;;;;5000697;28;20037;-83
2023/08/15 11:06:11;;;;;;;2.78;1.40;;;31.50;93.40;;;;;;5002817;28;20030;-84
2023/08/15 11:08:47;;;;;;;3.15;1.40;;;31.90;91.50;;;;;;5000867;28;20030;-84
2023/08/15 11:11:12;;;;;;;3.15;1.52;;;32.10;91.50;;;;;;5003220;28;20033;-84
2023/08/15 11:13:45;;;;;;;3.80;1.40;;;32.20;91.50;;;;;;4988752;28;20049;-85
2023/08/15 11:16:15;;;;;;;3.97;2.20;;;32.30;91.40;;;;;;5001029;28;20117;-85
2023/08/15 11:18:41;;;;;;;4.05;1.95;;;32.10;93.30;;;;;;5000249;28;20033;-86
2023/08/15 11:21:08;;;;;;;3.13;1.48;;;31.90;93.70;;;;;;4993976;28;20038;-86
2023/08/15 11:23:34;;;;;;;3.33;1.52;;;31.90;93.60;;;;;;5018064;28;20041;-85
2023/08/15 11:26:03;;;;;;;5.22;1.65;;;32.10;92.70;;;;;;5019432;28;20045;-86
2023/08/15 11:28:30;;;;;;;3.90;1.92;;;32.10;92.30;;;;;;4984343;28;20112;-86
2023/08/15 11:30:55;;;;;;;3.05;1.90;;;32.60;90.20;;;;;;4987121;28;20045;-85
2023/08/15 11:33:23;;;;;;;4.28;1.70;;;32.50;92.80;;;;;;5016341;28;20037;-85
2023/08/15 11:35:48;;;;;;;4.78;2.08;;;32.40;91.40;;;;;;4988868;28;20076;-84
2023/08/15 11:38:16;;;;;;;3.88;2.00;;;32.40;91.10;;;;;;4985820;28;20022;-85
2023/08/15 11:40:42;;;;;;;4.28;1.80;;;32.40;90.40;;;;;;5002692;28;20379;-84
2023/08/15 11:43:08;;;;;;;2.40;1.70;;;32.40;91.50;;;;;;4987092;28;20043;-85
2023/08/15 11:45:33;;;;;;;2.17;1.58;;;32.30;91.20;;;;;;4988493;28;20444;-85
2023/08/15 11:48:01;;;;;;;5.00;1.85;;;32.60;89.80;;;;;;4998543;28;20045;-85
2023/08/15 11:50:31;;;;;;;3.45;2.00;;;32.60;91.20;;;;;;5018204;28;20034;-86
2023/08/15 11:52:56;;;;;;;2.45;1.38;;;32.50;91.60;;;;;;5013798;28;20049;-86
2023/08/15 11:55:23;;;;;;;4.80;2.10;;;32.60;88.80;;;;;;4999792;28;20026;-86
2023/08/15 11:57:50;;;;;;;2.72;1.40;;;32.70;86.70;;;;;;5003631;28;20049;-85
2023/08/15 12:00:19;;;;;;;2.35;1.55;;;32.90;86.60;;;;;;5000701;28;20032;-86
2023/08/15 12:02:46;;;;;;;8.30;2.53;;;32.90;89.60;;;;;;4989868;28;20580;-84
2023/08/15 12:05:13;;;;;;;2.20;1.42;;;32.90;89.20;;;;;;5015801;28;20030;-86
2023/08/15 12:07:39;;;;;;;3.63;1.92;;;33.00;89.50;;;;;;4984617;28;20049;-85
2023/08/15 12:10:08;;;;;;;3.47;1.60;;;33.10;88.90;;;;;;5017174;28;20033;-86
2023/08/15 12:12:41;;;;;;;2.30;1.52;;;33.00;89.10;;;;;;4986777;28;20038;-85
2023/08/15 12:15:09;;;;;;;3.47;1.60;;;33.10;89.70;;;;;;5000898;28;20044;-83
2023/08/15 12:17:35;;;;;;;4.35;1.92;;;33.10;85.10;;;;;;4988033;28;20034;-85
2023/08/15 12:20:08;;;;;;;3.85;1.50;;;33.40;83.30;;;;;;5001555;28;20092;-85
2023/08/15 12:22:33;;;;;;;5.65;1.63;;;33.50;86.40;;;;;;5004519;28;20413;-85
2023/08/15 12:24:59;;;;;;;2.95;1.50;;;33.20;82.40;;;;;;5003237;28;20045;-85
2023/08/15 12:27:25;;;;;;;3.10;1.33;;;33.40;85.50;;;;;;5010083;28;20030;-85
2023/08/15 12:29:50;;;;;;;3.53;1.40;;;33.50;87.20;;;;;;5017428;28;20105;-84
2023/08/15 12:32:16;;;;;;;2.42;1.50;;;33.50;82.50;;;;;;5002339;28;20034;-85
2023/08/15 12:34:41;;;;;;;2.10;1.55;;;33.60;84.80;;;;;;5017020;28;20033;-85
2023/08/15 12:37:08;;;;;;;4.00;2.05;;;33.60;82.30;;;;;;5022340;28;20034;-85
2023/08/15 12:39:34;;;;;;;3.05;1.08;;;33.90;84.90;;;;;;4991830;28;20050;-85
2023/08/15 12:42:00;;;;;;;3.25;1.52;;;33.90;80.90;;;;;;5003603;28;20056;-85